Station Historical Data
Daily Summary for August 15, 2017 Units:  English    Metric   Both
« Previous Day
Next Day »
Daily Weekly Monthly Yearly Custom
  High: Low: Average:
Temperature: 88.7 °F 72.4 °F 79.2 °F
Dew Point: 75.3 °F 70.1 °F 72.1 °F
Humidity: 93% 58% 80%
Wind Speed: 1.0mph 0.0mph 0.1mph
Wind Gust: 5.0mph - -
Wind- - WSW
Pressure: 29.99 in 29.90 in -
Precipitation: 0.00 in    
Historical Graphs
 
 
Tabular Data for August 15, 2017
Time Temperature Dew Point Pressure Wind Wind Speed Wind Gust Humidity Rainfall Rate (Hourly) solar Conditions
00:00 74.5 °F 71.7 °F 29.91 in Calm     91% 0.00 in WeatherDisplay:10.37 W/m2 BKN
00:10 74.4 °F 71.6 °F 29.91 in Calm     91% 0.00 in WeatherDisplay:10.37 W/m2 BKN
00:15 74.4 °F 71.6 °F 29.91 in Calm     91% 0.00 in WeatherDisplay:10.37 W/m2 CLR
00:20 74.3 °F 71.5 °F 29.91 in Calm     91% 0.00 in WeatherDisplay:10.37 W/m2 CLR
00:25 74.2 °F 71.4 °F 29.91 in Calm     91% 0.00 in WeatherDisplay:10.37 W/m2 CLR
00:30 74.1 °F 71.3 °F 29.91 in Calm     91% 0.00 in WeatherDisplay:10.37 W/m2 CLR
00:40 74.0 °F 71.2 °F 29.91 in Calm     91% 0.00 in WeatherDisplay:10.37 W/m2 CLR
00:45 73.9 °F 71.1 °F 29.91 in Calm     91% 0.00 in WeatherDisplay:10.37 W/m2 CLR
00:50 73.9 °F 71.1 °F 29.91 in Calm     91% 0.00 in WeatherDisplay:10.37 W/m2 CLR
00:55 73.8 °F 71.0 °F 29.91 in Calm     91% 0.00 in WeatherDisplay:10.37 W/m2 CLR
01:00 73.7 °F 70.9 °F 29.91 in Calm     91% 0.00 in WeatherDisplay:10.37 W/m2 CLR
01:05 73.7 °F 70.9 °F 29.91 in Calm     91% 0.00 in WeatherDisplay:10.37 W/m2 CLR
01:10 73.7 °F 70.9 °F 29.91 in Calm     91% 0.00 in WeatherDisplay:10.37 W/m2 CLR
01:15 73.6 °F 70.8 °F 29.91 in Calm     91% 0.00 in WeatherDisplay:10.37 W/m2 CLR
01:20 73.5 °F 70.7 °F 29.91 in Calm     91% 0.00 in WeatherDisplay:10.37 W/m2 CLR
01:30 73.4 °F 70.6 °F 29.90 in Calm     91% 0.00 in WeatherDisplay:10.37 W/m2 CLR
01:40 73.3 °F 70.5 °F 29.90 in Calm     91% 0.00 in WeatherDisplay:10.37 W/m2 CLR
01:45 73.3 °F 70.5 °F 29.90 in Calm     91% 0.00 in WeatherDisplay:10.37 W/m2 CLR
01:50 73.2 °F 70.4 °F 29.90 in Calm     91% 0.00 in WeatherDisplay:10.37 W/m2 CLR
01:55 73.1 °F 70.3 °F 29.90 in Calm     91% 0.00 in WeatherDisplay:10.37 W/m2 CLR
02:00 73.1 °F 70.3 °F 29.90 in Calm     91% 0.00 in WeatherDisplay:10.37 W/m2 CLR
02:05 73.1 °F 70.3 °F 29.90 in Calm     91% 0.00 in WeatherDisplay:10.37 W/m2 CLR
02:10 73.1 °F 70.6 °F 29.90 in Calm     92% 0.00 in WeatherDisplay:10.37 W/m2 CLR
02:15 73.1 °F 70.6 °F 29.90 in Calm     92% 0.00 in WeatherDisplay:10.37 W/m2 CLR
02:20 73.1 °F 70.6 °F 29.90 in Calm     92% 0.00 in WeatherDisplay:10.37 W/m2 CLR
02:25 73.1 °F 70.6 °F 29.90 in Calm     92% 0.00 in WeatherDisplay:10.37 W/m2 CLR
02:30 73.1 °F 70.6 °F 29.90 in Calm     92% 0.00 in WeatherDisplay:10.37 W/m2 CLR
02:35 73.1 °F 70.7 °F 29.90 in Calm     92% 0.00 in WeatherDisplay:10.37 W/m2 CLR
02:40 73.1 °F 70.6 °F 29.90 in Calm     92% 0.00 in WeatherDisplay:10.37 W/m2 CLR
02:45 73.1 °F 70.6 °F 29.90 in Calm     92% 0.00 in WeatherDisplay:10.37 W/m2 FEW
02:50 73.1 °F 70.6 °F 29.90 in Calm     92% 0.00 in WeatherDisplay:10.37 W/m2 FEW
02:55 73.0 °F 70.5 °F 29.90 in Calm     92% 0.00 in WeatherDisplay:10.37 W/m2 SCT
03:00 73.0 °F 70.5 °F 29.90 in Calm     92% 0.00 in WeatherDisplay:10.37 W/m2 SCT
03:10 72.9 °F 70.4 °F 29.90 in Calm     92% 0.00 in WeatherDisplay:10.37 W/m2 SCT
03:15 72.8 °F 70.3 °F 29.90 in Calm     92% 0.00 in WeatherDisplay:10.37 W/m2 BKN
03:20 72.8 °F 70.3 °F 29.90 in Calm     92% 0.00 in WeatherDisplay:10.37 W/m2 BKN
03:25 72.7 °F 70.2 °F 29.90 in Calm     92% 0.00 in WeatherDisplay:10.37 W/m2 OVC
03:30 72.7 °F 70.2 °F 29.90 in Calm     92% 0.00 in WeatherDisplay:10.37 W/m2 OVC
03:40 72.7 °F 70.2 °F 29.90 in Calm     92% 0.00 in WeatherDisplay:10.37 W/m2 OVC
03:45 72.6 °F 70.2 °F 29.91 in Calm     92% 0.00 in WeatherDisplay:10.37 W/m2 BKN
03:50 72.6 °F 70.1 °F 29.91 in Calm     92% 0.00 in WeatherDisplay:10.37 W/m2 BKN
04:00 72.6 °F 70.5 °F 29.91 in Calm     93% 0.00 in WeatherDisplay:10.37 W/m2 BKN
04:15 72.6 °F 70.5 °F 29.91 in Calm     93% 0.00 in WeatherDisplay:10.37 W/m2 OVC
04:20 72.6 °F 70.5 °F 29.91 in Calm     93% 0.00 in WeatherDisplay:10.37 W/m2 OVC
04:25 72.6 °F 70.5 °F 29.91 in Calm     93% 0.00 in WeatherDisplay:10.37 W/m2 OVC
04:30 72.6 °F 70.5 °F 29.91 in Calm     93% 0.00 in WeatherDisplay:10.37 W/m2 OVC
04:40 72.6 °F 70.5 °F 29.91 in Calm     93% 0.00 in WeatherDisplay:10.37 W/m2 OVC
04:45 72.6 °F 70.5 °F 29.91 in Calm     93% 0.00 in WeatherDisplay:10.37 W/m2 OVC
04:50 72.6 °F 70.5 °F 29.91 in Calm     93% 0.00 in WeatherDisplay:10.37 W/m2 OVC
04:55 72.6 °F 70.5 °F 29.91 in Calm     93% 0.00 in WeatherDisplay:10.37 W/m2 OVC
05:00 72.6 °F 70.5 °F 29.91 in Calm     93% 0.00 in WeatherDisplay:10.37 W/m2 OVC
05:10 72.6 °F 70.5 °F 29.92 in Calm     93% 0.00 in WeatherDisplay:10.37 W/m2 OVC
05:15 72.6 °F 70.5 °F 29.92 in Calm     93% 0.00 in WeatherDisplay:10.37 W/m2 BKN
05:20 72.5 °F 70.4 °F 29.92 in Calm     93% 0.00 in WeatherDisplay:10.37 W/m2 BKN
05:25 72.5 °F 70.4 °F 29.92 in Calm   1.0 mph 93% 0.00 in WeatherDisplay:10.37 W/m2 BKN
05:30 72.6 °F 70.4 °F 29.92 in Calm     93% 0.00 in WeatherDisplay:10.37 W/m2 BKN
05:40 72.6 °F 70.5 °F 29.92 in Calm     93% 0.00 in WeatherDisplay:10.37 W/m2 BKN
05:45 72.6 °F 70.5 °F 29.92 in Calm     93% 0.00 in WeatherDisplay:10.37 W/m2 BKN
05:50 72.6 °F 70.5 °F 29.92 in Calm   1.0 mph 93% 0.00 in WeatherDisplay:10.37 W/m2 BKN
05:55 72.6 °F 70.5 °F 29.92 in Calm   1.0 mph 93% 0.00 in WeatherDisplay:10.37 W/m2 BKN
06:00 72.6 °F 70.5 °F 29.93 in Calm   1.0 mph 93% 0.00 in WeatherDisplay:10.37 W/m2 BKN
06:10 72.6 °F 70.4 °F 29.92 in Calm   1.0 mph 93% 0.00 in WeatherDisplay:10.37 W/m2 BKN
06:15 72.5 °F 70.4 °F 29.93 in Calm   1.0 mph 93% 0.00 in WeatherDisplay:10.37 W/m2 SCT
06:20 72.5 °F 70.4 °F 29.93 in Calm   1.0 mph 93% 0.00 in WeatherDisplay:10.37 W/m2 SCT
06:25 72.5 °F 70.4 °F 29.93 in Calm     93% 0.00 in WeatherDisplay:10.37 W/m2 SCT
06:30 72.5 °F 70.4 °F 29.93 in Calm     93% 0.00 in WeatherDisplay:10.37 W/m2 SCT
06:40 72.4 °F 70.3 °F 29.93 in Calm     93% 0.00 in WeatherDisplay:10.37 W/m2 SCT
06:45 72.4 °F 70.3 °F 29.93 in Calm   1.0 mph 93% 0.00 in WeatherDisplay:10.37 W/m2 SCT
06:50 72.4 °F 70.3 °F 29.94 in Calm     93% 0.00 in WeatherDisplay:10.37 W/m2 SCT
07:00 72.4 °F 70.3 °F 29.94 in Calm   1.0 mph 93% 0.00 in WeatherDisplay:10.37 W/m2 SCT
07:10 72.4 °F 70.3 °F 29.94 in Calm   1.0 mph 93% 0.00 in WeatherDisplay:10.37 W/m2 SCT
07:15 72.4 °F 70.3 °F 29.94 in Calm   1.0 mph 93% 0.00 in WeatherDisplay:10.37 W/m2 BKN
07:20 72.6 °F 70.5 °F 29.94 in Calm     93% 0.00 in WeatherDisplay:10.37 W/m2 BKN
07:25 72.7 °F 70.5 °F 29.94 in Calm     93% 0.00 in WeatherDisplay:10.37 W/m2 BKN
07:30 72.7 °F 70.6 °F 29.95 in Calm   1.0 mph 93% 0.00 in WeatherDisplay:10.37 W/m2 BKN
07:40 72.9 °F 70.8 °F 29.95 in Calm   1.0 mph 93% 0.00 in WeatherDisplay:10.37 W/m2 BKN
07:45 72.9 °F 70.8 °F 29.95 in Calm   1.0 mph 93% 0.00 in WeatherDisplay:10.37 W/m2 BKN
07:50 73.0 °F 70.9 °F 29.95 in Calm   2.0 mph 93% 0.00 in WeatherDisplay:10.37 W/m2 BKN
07:55 73.1 °F 70.9 °F 29.95 in Calm   1.0 mph 93% 0.00 in WeatherDisplay:10.37 W/m2 BKN
08:00 73.2 °F 71.1 °F 29.95 in Calm   1.0 mph 93% 0.00 in WeatherDisplay:10.37 W/m2 BKN
08:10 73.5 °F 71.4 °F 29.95 in Calm   1.0 mph 93% 0.00 in WeatherDisplay:10.37 W/m2 BKN
08:15 73.7 °F 71.6 °F 29.95 in Calm     93% 0.00 in WeatherDisplay:10.37 W/m2 SCT
08:20 74.0 °F 71.5 °F 29.95 in Calm     92% 0.00 in WeatherDisplay:10.37 W/m2 SCT
08:25 74.2 °F 71.7 °F 29.95 in Calm   1.0 mph 92% 0.00 in WeatherDisplay:10.37 W/m2 SCT
08:30 74.3 °F 71.5 °F 29.95 in Calm   1.0 mph 91% 0.00 in WeatherDisplay:10.37 W/m2 SCT
08:35 74.5 °F 71.7 °F 29.96 in Calm   1.0 mph 91% 0.00 in WeatherDisplay:10.37 W/m2 SCT
08:40 74.7 °F 71.9 °F 29.96 in Calm   1.0 mph 91% 0.00 in WeatherDisplay:10.37 W/m2 SCT
08:45 74.9 °F 71.8 °F 29.96 in Calm   1.0 mph 90% 0.00 in WeatherDisplay:10.37 W/m2 SCT
08:50 75.0 °F 71.9 °F 29.96 in Calm   1.0 mph 90% 0.00 in WeatherDisplay:10.37 W/m2 SCT
08:55 75.1 °F 71.6 °F 29.96 in Calm   2.0 mph 89% 0.00 in WeatherDisplay:10.37 W/m2 SCT
09:00 75.4 °F 72.3 °F 29.96 in Calm   1.0 mph 90% 0.00 in WeatherDisplay:10.37 W/m2 SCT
09:10 75.8 °F 72.0 °F 29.96 in Calm     88% 0.00 in WeatherDisplay:10.37 W/m2 SCT
09:15 76.0 °F 71.9 °F 29.96 in Calm     87% 0.00 in WeatherDisplay:10.37 W/m2 SCT
09:20 76.2 °F 72.0 °F 29.96 in Calm     87% 0.00 in WeatherDisplay:10.37 W/m2 SCT
09:25 76.5 °F 72.3 °F 29.96 in Calm     87% 0.00 in WeatherDisplay:10.37 W/m2 SCT
09:30 77.0 °F 72.9 °F 29.96 in Calm     87% 0.00 in WeatherDisplay:10.37 W/m2 SCT
09:35 77.5 °F 73.0 °F 29.96 in Calm     86% 0.00 in WeatherDisplay:10.37 W/m2 SCT
09:40 77.8 °F 73.3 °F 29.96 in Calm   1.0 mph 86% 0.00 in WeatherDisplay:10.37 W/m2 SCT
09:45 78.1 °F 72.9 °F 29.96 in Calm   2.0 mph 84% 0.00 in WeatherDisplay:10.37 W/m2 SCT
09:50 78.4 °F 73.2 °F 29.96 in Calm   2.0 mph 84% 0.00 in WeatherDisplay:10.37 W/m2 SCT
09:55 78.7 °F 73.4 °F 29.96 in Calm   1.0 mph 84% 0.00 in WeatherDisplay:10.37 W/m2 SCT
10:00 79.0 °F 73.0 °F 29.96 in Calm   1.0 mph 82% 0.00 in WeatherDisplay:10.37 W/m2 SCT
10:10 79.7 °F 73.0 °F 29.96 in Calm   2.0 mph 80% 0.00 in WeatherDisplay:10.37 W/m2 SCT
10:15 79.9 °F 73.2 °F 29.97 in Calm   3.0 mph 80% 0.00 in WeatherDisplay:10.37 W/m2 SCT
10:20 80.2 °F 73.8 °F 29.97 in Calm   1.0 mph 81% 0.00 in WeatherDisplay:10.37 W/m2 SCT
10:25 80.2 °F 73.5 °F 29.97 in Calm   1.0 mph 80% 0.00 in WeatherDisplay:10.37 W/m2 SCT
10:30 80.1 °F 73.4 °F 29.97 in Calm   1.0 mph 80% 0.00 in WeatherDisplay:10.37 W/m2 SCT
10:40 80.2 °F 73.8 °F 29.98 in Calm     81% 0.00 in WeatherDisplay:10.37 W/m2 SCT
10:45 80.1 °F 73.0 °F 29.98 in Calm   2.0 mph 79% 0.00 in WeatherDisplay:10.37 W/m2 SCT
10:50 80.1 °F 73.4 °F 29.98 in SSW 1.0 mph 5.0 mph 80% 0.00 in WeatherDisplay:10.37 W/m2 SCT
10:55 80.3 °F 73.6 °F 29.98 in SSW 1.0 mph 3.0 mph 80% 0.00 in WeatherDisplay:10.37 W/m2 SCT
11:00 80.7 °F 73.9 °F 29.98 in Calm   2.0 mph 80% 0.00 in WeatherDisplay:10.37 W/m2 SCT
11:10 81.0 °F 74.2 °F 29.98 in West 1.0 mph 2.0 mph 80% 0.00 in WeatherDisplay:10.37 W/m2 SCT
11:15 81.4 °F 74.2 °F 29.98 in Calm   1.0 mph 79% 0.00 in WeatherDisplay:10.37 W/m2 BKN
11:20 81.6 °F 74.5 °F 29.98 in Calm   1.0 mph 79% 0.00 in WeatherDisplay:10.37 W/m2 BKN
11:25 81.7 °F 74.2 °F 29.98 in Calm   1.0 mph 78% 0.00 in WeatherDisplay:10.37 W/m2 BKN
11:30 82.1 °F 74.5 °F 29.98 in Calm   2.0 mph 78% 0.00 in WeatherDisplay:10.37 W/m2 BKN
11:40 82.4 °F 74.5 °F 29.99 in Calm   2.0 mph 77% 0.00 in WeatherDisplay:10.37 W/m2 BKN
11:45 82.4 °F 74.8 °F 29.99 in Calm   1.0 mph 78% 0.00 in WeatherDisplay:10.37 W/m2 BKN
11:50 82.3 °F 74.4 °F 29.99 in Calm   1.0 mph 77% 0.00 in WeatherDisplay:10.37 W/m2 BKN
11:55 82.3 °F 74.7 °F 29.99 in WSW 1.0 mph 3.0 mph 78% 0.00 in WeatherDisplay:10.37 W/m2 BKN
12:00 82.4 °F 74.5 °F 29.99 in SW 1.0 mph 5.0 mph 77% 0.00 in WeatherDisplay:10.37 W/m2 BKN
12:10 82.8 °F 74.9 °F 29.99 in Calm   1.0 mph 77% 0.00 in WeatherDisplay:10.37 W/m2 BKN
12:15 83.0 °F 74.6 °F 29.99 in Calm   1.0 mph 76% 0.00 in WeatherDisplay:10.37 W/m2 BKN
12:20 83.3 °F 75.3 °F 29.99 in Calm   1.0 mph 77% 0.00 in WeatherDisplay:10.37 W/m2 BKN
12:30 84.3 °F 74.7 °F 29.99 in Calm   3.0 mph 73% 0.00 in WeatherDisplay:10.37 W/m2 BKN
12:40 84.6 °F 73.7 °F 29.98 in Calm   2.0 mph 70% 0.00 in WeatherDisplay:10.37 W/m2 BKN
12:45 84.1 °F 74.1 °F 29.98 in Calm     72% 0.00 in WeatherDisplay:10.37 W/m2 BKN
12:50 83.7 °F 73.7 °F 29.98 in Calm   1.0 mph 72% 0.00 in WeatherDisplay:10.37 W/m2 BKN
12:55 83.2 °F 73.6 °F 29.98 in Calm   1.0 mph 73% 0.00 in WeatherDisplay:10.37 W/m2 BKN
13:00 83.5 °F 74.7 °F 29.98 in Calm   1.0 mph 75% 0.00 in WeatherDisplay:10.37 W/m2 BKN
13:15 86.1 °F 75.1 °F 29.97 in West 1.0 mph 3.0 mph 70% 0.00 in WeatherDisplay:10.37 W/m2 BKN
13:20 86.5 °F 73.7 °F 29.97 in Calm   3.0 mph 66% 0.00 in WeatherDisplay:10.37 W/m2 BKN
13:25 87.2 °F 74.0 °F 29.97 in Calm   2.0 mph 65% 0.00 in WeatherDisplay:10.37 W/m2 BKN
13:30 87.4 °F 73.7 °F 29.97 in WSW 1.0 mph 2.0 mph 64% 0.00 in WeatherDisplay:10.37 W/m2 BKN
13:40 88.0 °F 73.3 °F 29.96 in Calm   3.0 mph 62% 0.00 in WeatherDisplay:10.37 W/m2 BKN
13:50 88.5 °F 73.8 °F 29.96 in Calm   5.0 mph 62% 0.00 in WeatherDisplay:10.37 W/m2 BKN
13:55 88.3 °F 73.1 °F 29.96 in WSW 1.0 mph 3.0 mph 61% 0.00 in WeatherDisplay:10.37 W/m2 BKN
14:00 88.1 °F 72.5 °F 29.96 in WSW 1.0 mph 3.0 mph 60% 0.00 in WeatherDisplay:10.37 W/m2 BKN
14:05 88.2 °F 73.0 °F 29.96 in WSW 1.0 mph 5.0 mph 61% 0.00 in WeatherDisplay:10.37 W/m2 BKN
14:10 88.3 °F 71.7 °F 29.96 in WNW 1.0 mph 5.0 mph 58% 0.00 in WeatherDisplay:10.37 W/m2 BKN
14:15 88.6 °F 72.4 °F 29.95 in Calm   1.0 mph 59% 0.00 in WeatherDisplay:10.37 W/m2 BKN
14:20 88.7 °F 72.5 °F 29.95 in West 1.0 mph 5.0 mph 59% 0.00 in WeatherDisplay:10.37 W/m2 BKN
14:25 88.6 °F 72.4 °F 29.95 in WSW 1.0 mph 3.0 mph 59% 0.00 in WeatherDisplay:10.37 W/m2 BKN
14:30 88.5 °F 72.9 °F 29.95 in WSW 1.0 mph 2.0 mph 60% 0.00 in WeatherDisplay:10.37 W/m2 BKN
14:35 88.6 °F 72.4 °F 29.95 in Calm   2.0 mph 59% 0.00 in WeatherDisplay:10.37 W/m2 BKN
14:40 88.2 °F 72.6 °F 29.94 in Calm   2.0 mph 60% 0.00 in WeatherDisplay:10.37 W/m2 BKN
14:45 87.9 °F 72.7 °F 29.94 in Calm   2.0 mph 61% 0.00 in WeatherDisplay:10.37 W/m2 BKN
14:50 87.9 °F 71.8 °F 29.94 in Calm   2.0 mph 59% 0.00 in WeatherDisplay:10.37 W/m2 BKN
14:55 88.0 °F 73.3 °F 29.94 in Calm   1.0 mph 62% 0.00 in WeatherDisplay:10.37 W/m2 BKN
15:00 87.9 °F 72.3 °F 29.94 in Calm   2.0 mph 60% 0.00 in WeatherDisplay:10.37 W/m2 BKN
15:05 87.6 °F 72.5 °F 29.94 in Calm   1.0 mph 61% 0.00 in WeatherDisplay:10.37 W/m2 BKN
15:10 87.5 °F 72.9 °F 29.94 in Calm   1.0 mph 62% 0.00 in WeatherDisplay:10.37 W/m2 BKN
15:15 87.8 °F 72.7 °F 29.94 in Calm   1.0 mph 61% 0.00 in WeatherDisplay:10.37 W/m2 BKN
15:20 87.6 °F 72.5 °F 29.94 in Calm   2.0 mph 61% 0.00 in WeatherDisplay:10.37 W/m2 BKN
15:25 87.3 °F 71.7 °F 29.94 in Calm   2.0 mph 60% 0.00 in WeatherDisplay:10.37 W/m2 BKN
15:30 87.1 °F 72.5 °F 29.93 in Calm   1.0 mph 62% 0.00 in WeatherDisplay:10.37 W/m2 BKN
15:35 86.9 °F 72.8 °F 29.93 in Calm   1.0 mph 63% 0.00 in WeatherDisplay:10.37 W/m2 BKN
15:40 86.8 °F 72.2 °F 29.93 in Calm   2.0 mph 62% 0.00 in WeatherDisplay:10.37 W/m2 BKN
15:45 86.8 °F 72.2 °F 29.93 in NNW 1.0 mph 2.0 mph 62% 0.00 in WeatherDisplay:10.37 W/m2 BKN
15:50 86.3 °F 72.2 °F 29.93 in Calm   1.0 mph 63% 0.00 in WeatherDisplay:10.37 W/m2 BKN
15:55 85.8 °F 73.1 °F 29.93 in Calm     66% 0.00 in WeatherDisplay:10.37 W/m2 BKN
16:00 85.5 °F 73.3 °F 29.93 in Calm     67% 0.00 in WeatherDisplay:10.37 W/m2 BKN
16:10 85.7 °F 73.9 °F 29.92 in Calm   1.0 mph 68% 0.00 in WeatherDisplay:10.37 W/m2 BKN
16:15 86.0 °F 73.8 °F 29.92 in Calm     67% 0.00 in WeatherDisplay:10.37 W/m2 BKN
16:20 86.2 °F 73.0 °F 29.92 in Calm     65% 0.00 in WeatherDisplay:10.37 W/m2 BKN
16:25 86.3 °F 74.0 °F 29.91 in Calm   1.0 mph 67% 0.00 in WeatherDisplay:10.37 W/m2 BKN
16:30 86.3 °F 74.9 °F 29.91 in Calm   2.0 mph 69% 0.00 in WeatherDisplay:10.37 W/m2 BKN
16:35 86.3 °F 74.0 °F 29.91 in Calm   1.0 mph 67% 0.00 in WeatherDisplay:10.37 W/m2 BKN
16:40 86.1 °F 73.9 °F 29.91 in Calm   1.0 mph 67% 0.00 in WeatherDisplay:10.37 W/m2 BKN
16:45 86.0 °F 74.6 °F 29.91 in Calm   1.0 mph 69% 0.00 in WeatherDisplay:10.37 W/m2 BKN
16:50 86.0 °F 75.0 °F 29.92 in Calm   1.0 mph 70% 0.00 in WeatherDisplay:10.37 W/m2 BKN
16:55 85.9 °F 74.1 °F 29.91 in Calm   2.0 mph 68% 0.00 in WeatherDisplay:10.37 W/m2 BKN
17:00 85.9 °F 73.2 °F 29.91 in Calm     66% 0.00 in WeatherDisplay:10.37 W/m2 BKN
17:10 86.0 °F 73.3 °F 29.91 in Calm   2.0 mph 66% 0.00 in WeatherDisplay:10.37 W/m2 BKN
17:15 86.1 °F 74.3 °F 29.91 in Calm   1.0 mph 68% 0.00 in WeatherDisplay:10.37 W/m2 BKN
17:20 86.4 °F 74.1 °F 29.91 in Calm   3.0 mph 67% 0.00 in WeatherDisplay:10.37 W/m2 BKN
17:25 86.6 °F 74.3 °F 29.91 in Calm   2.0 mph 67% 0.00 in WeatherDisplay:10.37 W/m2 BKN
17:30 86.7 °F 73.5 °F 29.91 in Calm   2.0 mph 65% 0.00 in WeatherDisplay:10.37 W/m2 BKN
17:40 86.6 °F 73.4 °F 29.91 in Calm   1.0 mph 65% 0.00 in WeatherDisplay:10.37 W/m2 BKN
17:45 86.5 °F 73.8 °F 29.91 in Calm   1.0 mph 66% 0.00 in WeatherDisplay:10.37 W/m2 BKN
17:50 86.3 °F 73.6 °F 29.91 in Calm   1.0 mph 66% 0.00 in WeatherDisplay:10.37 W/m2 BKN
17:55 86.2 °F 73.5 °F 29.91 in Calm   1.0 mph 66% 0.00 in WeatherDisplay:10.37 W/m2 BKN
18:00 86.1 °F 73.0 °F 29.91 in Calm   2.0 mph 65% 0.00 in WeatherDisplay:10.37 W/m2 BKN
18:10 85.9 °F 73.2 °F 29.92 in Calm   1.0 mph 66% 0.00 in WeatherDisplay:10.37 W/m2 BKN
18:15 85.6 °F 72.1 °F 29.92 in Calm   1.0 mph 64% 0.00 in WeatherDisplay:10.37 W/m2 BKN
18:20 85.5 °F 72.4 °F 29.92 in Calm   1.0 mph 65% 0.00 in WeatherDisplay:10.37 W/m2 BKN
18:25 85.3 °F 73.1 °F 29.92 in Calm   1.0 mph 67% 0.00 in WeatherDisplay:10.37 W/m2 BKN
18:30 85.0 °F 71.9 °F 29.92 in Calm   1.0 mph 65% 0.00 in WeatherDisplay:10.37 W/m2 BKN
18:35 84.9 °F 72.3 °F 29.93 in Calm   1.0 mph 66% 0.00 in WeatherDisplay:10.37 W/m2 BKN
18:40 84.8 °F 71.7 °F 29.93 in Calm   1.0 mph 65% 0.00 in WeatherDisplay:10.37 W/m2 BKN
18:45 84.7 °F 72.1 °F 29.92 in Calm   1.0 mph 66% 0.00 in WeatherDisplay:10.37 W/m2 BKN
18:50 84.5 °F 72.3 °F 29.93 in Calm     67% 0.00 in WeatherDisplay:10.37 W/m2 BKN
19:00 84.1 °F 72.0 °F 29.93 in Calm     67% 0.00 in WeatherDisplay:10.37 W/m2 BKN
19:05 84.0 °F 72.3 °F 29.93 in Calm   1.0 mph 68% 0.00 in WeatherDisplay:10.37 W/m2 BKN
19:10 83.9 °F 72.6 °F 29.94 in Calm     69% 0.00 in WeatherDisplay:10.37 W/m2 BKN
19:15 83.7 °F 72.4 °F 29.94 in Calm     69% 0.00 in WeatherDisplay:10.37 W/m2 BKN
19:20 83.5 °F 72.2 °F 29.94 in Calm   1.0 mph 69% 0.00 in WeatherDisplay:10.37 W/m2 BKN
19:25 83.3 °F 72.1 °F 29.94 in Calm     69% 0.00 in WeatherDisplay:10.37 W/m2 BKN
19:30 83.3 °F 72.5 °F 29.94 in Calm   5.0 mph 70% 0.00 in WeatherDisplay:10.37 W/m2 BKN
19:35 83.2 °F 72.4 °F 29.95 in Calm     70% 0.00 in WeatherDisplay:10.37 W/m2 BKN
19:40 83.0 °F 72.6 °F 29.95 in Calm     71% 0.00 in WeatherDisplay:10.37 W/m2 BKN
19:45 82.7 °F 72.4 °F 29.95 in Calm   1.0 mph 71% 0.00 in WeatherDisplay:10.37 W/m2 BKN
19:50 82.5 °F 72.6 °F 29.95 in Calm     72% 0.00 in WeatherDisplay:10.37 W/m2 BKN
19:55 82.4 °F 72.9 °F 29.96 in Calm     73% 0.00 in WeatherDisplay:10.37 W/m2 BKN
20:00 82.2 °F 72.3 °F 29.96 in Calm     72% 0.00 in WeatherDisplay:10.37 W/m2 BKN
20:05 82.0 °F 72.9 °F 29.96 in Calm     74% 0.00 in WeatherDisplay:10.37 W/m2 BKN
20:10 81.8 °F 72.7 °F 29.96 in Calm     74% 0.00 in WeatherDisplay:10.37 W/m2 BKN
20:15 81.6 °F 72.5 °F 29.96 in Calm     74% 0.00 in WeatherDisplay:10.37 W/m2 BKN
20:20 81.3 °F 73.0 °F 29.97 in Calm   1.0 mph 76% 0.00 in WeatherDisplay:10.37 W/m2 BKN
20:25 81.0 °F 72.7 °F 29.97 in Calm     76% 0.00 in WeatherDisplay:10.37 W/m2 BKN
20:30 80.8 °F 71.7 °F 29.96 in Calm     74% 0.00 in WeatherDisplay:10.37 W/m2 BKN
20:35 80.7 °F 72.0 °F 29.96 in Calm     75% 0.00 in WeatherDisplay:10.37 W/m2 BKN
20:40 80.5 °F 71.9 °F 29.96 in Calm     75% 0.00 in WeatherDisplay:10.37 W/m2 BKN
20:45 80.2 °F 71.6 °F 29.95 in Calm     75% 0.00 in WeatherDisplay:10.37 W/m2 BKN
20:50 80.0 °F 72.1 °F 29.95 in Calm     77% 0.00 in WeatherDisplay:10.37 W/m2 BKN
20:55 79.7 °F 71.8 °F 29.96 in Calm     77% 0.00 in WeatherDisplay:10.37 W/m2 BKN
21:00 79.5 °F 72.0 °F 29.95 in Calm     78% 0.00 in WeatherDisplay:10.37 W/m2 BKN
21:05 79.2 °F 72.1 °F 29.96 in Calm     79% 0.00 in WeatherDisplay:10.37 W/m2 BKN
21:10 79.0 °F 72.0 °F 29.96 in Calm     79% 0.00 in WeatherDisplay:10.37 W/m2 BKN
21:15 78.8 °F 72.1 °F 29.96 in Calm     80% 0.00 in WeatherDisplay:10.37 W/m2 BKN
21:20 78.5 °F 71.8 °F 29.96 in Calm     80% 0.00 in WeatherDisplay:10.37 W/m2 BKN
21:25 78.4 °F 72.0 °F 29.96 in Calm     81% 0.00 in WeatherDisplay:10.37 W/m2 BKN
21:30 78.2 °F 71.9 °F 29.96 in Calm     81% 0.00 in WeatherDisplay:10.37 W/m2 BKN
21:35 78.2 °F 71.9 °F 29.97 in Calm     81% 0.00 in WeatherDisplay:10.37 W/m2 BKN
21:40 78.2 °F 71.9 °F 29.97 in Calm     81% 0.00 in WeatherDisplay:10.37 W/m2 BKN
21:45 78.1 °F 71.8 °F 29.97 in Calm     81% 0.00 in WeatherDisplay:10.37 W/m2 BKN
21:50 78.0 °F 71.7 °F 29.97 in Calm     81% 0.00 in WeatherDisplay:10.37 W/m2 BKN
21:55 77.9 °F 72.0 °F 29.97 in Calm     82% 0.00 in WeatherDisplay:10.37 W/m2 BKN
22:00 77.7 °F 71.8 °F 29.97 in Calm     82% 0.00 in WeatherDisplay:10.37 W/m2 BKN
22:05 77.7 °F 71.8 °F 29.98 in Calm     82% 0.00 in WeatherDisplay:10.37 W/m2 BKN
22:10 77.5 °F 71.6 °F 29.98 in Calm     82% 0.00 in WeatherDisplay:10.37 W/m2 BKN
22:15 77.5 °F 71.6 °F 29.98 in Calm     82% 0.00 in WeatherDisplay:10.37 W/m2 BKN
22:20 77.4 °F 71.8 °F 29.98 in Calm     83% 0.00 in WeatherDisplay:10.37 W/m2 BKN
22:25 77.3 °F 71.8 °F 29.98 in Calm     83% 0.00 in WeatherDisplay:10.37 W/m2 BKN
22:30 77.3 °F 71.7 °F 29.98 in Calm     83% 0.00 in WeatherDisplay:10.37 W/m2 BKN
22:40 77.1 °F 71.5 °F 29.98 in Calm     83% 0.00 in WeatherDisplay:10.37 W/m2 BKN
22:45 77.0 °F 71.8 °F 29.98 in Calm     84% 0.00 in WeatherDisplay:10.37 W/m2 BKN
22:50 76.9 °F 71.7 °F 29.99 in Calm     84% 0.00 in WeatherDisplay:10.37 W/m2 BKN
22:55 76.8 °F 71.6 °F 29.98 in Calm     84% 0.00 in WeatherDisplay:10.37 W/m2 BKN
23:00 76.8 °F 71.9 °F 29.99 in Calm     85% 0.00 in WeatherDisplay:10.37 W/m2 BKN
23:10 76.5 °F 71.7 °F 29.99 in Calm     85% 0.00 in WeatherDisplay:10.37 W/m2 BKN
23:20 76.4 °F 71.9 °F 29.98 in Calm     86% 0.00 in WeatherDisplay:10.37 W/m2 BKN
23:25 76.4 °F 71.9 °F 29.98 in Calm     86% 0.00 in WeatherDisplay:10.37 W/m2 BKN
23:30 76.3 °F 71.8 °F 29.98 in Calm     86% 0.00 in WeatherDisplay:10.37 W/m2 BKN
23:35 76.3 °F 72.2 °F 29.97 in Calm     87% 0.00 in WeatherDisplay:10.37 W/m2 BKN
23:40 76.4 °F 72.2 °F 29.97 in Calm     87% 0.00 in WeatherDisplay:10.37 W/m2 BKN
23:45 76.5 °F 72.3 °F 29.98 in Calm     87% 0.00 in WeatherDisplay:10.37 W/m2 BKN
23:50 76.6 °F 72.4 °F 29.98 in Calm     87% 0.00 in WeatherDisplay:10.37 W/m2 BKN
23:55 76.6 °F 72.4 °F 29.98 in Calm     87% 0.00 in WeatherDisplay:10.37 W/m2 BKN
Piedmont Bend
Compliments of Weather Underground - 4 mb